• Join FlightAware (Why Join?)
  • Login
  • US Flag 
11:27AM EDT


 

Airport Tracker/Info


-or-


 

Live Flight TrackerFlight Track Log ✈ CTL18 ✈ 09-May-2013 ✈ KBKL - KPTK

Flight Track Log - Related Links

Times and Time Zones

All times are in EDT time to prevent confusion due to time zone crossing. See the CTL18 flight status page for this flight to view local times or setup timezone preferences in your user account.

Time Position Orientation Groundspeed Altitude Reporting Facility
EDT Latitude Longitude Course Direction KTS MPH feet Rate Location/Type
10:09PM 41.5378 -81.6844 337° Northwest 144 166 1,300  Level Cleveland Center
10:10PM 41.5772 -81.7072 337° Northwest 161 185 2,300 840 Climbing Cleveland Center
10:11PM 41.5911 -81.7603 289° West 162 186 3,000 660 Climbing Cleveland Center
10:12PM 41.6092 -81.8217 291° West 164 189 3,700 600 Climbing Cleveland Center
10:13PM 41.6275 -81.8833 292° West 160 184 4,300 540 Climbing Cleveland Center
10:14PM 41.6456 -81.9364 294° West 160 184 4,800 480 Climbing Cleveland Center
10:15PM 41.6594 -81.9922 288° West 158 182 5,300 420 Climbing Cleveland Center
10:16PM 41.6775 -82.0483 293° West 156 180 5,800 360 Climbing Cleveland Center
10:17PM 41.6956 -82.1042 293° West 161 185 6,100 120 Climbing Cleveland Center
10:18PM 41.7133 -82.1658 291° West 168 193 6,100  Level Cleveland Center
10:19PM 41.7294 -82.2192 292° West 169 194 6,100 -60 Level Cleveland Center
10:20PM 41.7472 -82.2753 293° West 170 196 6,000  Descending Cleveland Center
10:21PM 41.7672 -82.3342 294° West 168 193 6,100  Climbing Cleveland Center
10:22PM 41.7792 -82.3736 297° West 166 191 6,000 -120 Descending Cleveland Center
10:22PM 41.7911 -82.4156 291° West 167 192 6,000  Level Cleveland Center
10:23PM 41.8067 -82.4803 288° West 168 193 6,000  Level Cleveland Center
10:24PM 41.8225 -82.5364 291° West 167 192 6,100  Climbing Cleveland Center
10:25PM 41.8361 -82.5953 287° West 166 191 6,000 -60 Descending Cleveland Center
10:26PM 41.8600 -82.6436 304° West 176 203 6,000  Level Cleveland Center
10:27PM 41.9119 -82.6647 343° North 176 203 6,100  Climbing Cleveland Center
10:28PM 41.9550 -82.6997 329° Northwest 177 204 6,100  Level Cleveland Center
10:29PM 41.9961 -82.7344 328° Northwest 177 204 6,100  Level Cleveland Center
10:30PM 42.0372 -82.7694 328° Northwest 177 204 6,100 -60 Level Cleveland Center
10:31PM 42.0758 -82.8100 322° Northwest 177 204 6,000 -60 Descending Cleveland Center
10:32PM 42.1147 -82.8506 322° Northwest 176 203 6,000  Level Cleveland Center
10:33PM 42.1597 -82.8914 326° Northwest 175 201 6,100  Climbing Cleveland Center
10:34PM 42.1964 -82.9319 321° Northwest 181 208 6,100  Level Cleveland Center
10:35PM 42.2417 -82.9672 330° Northwest 180 207 6,100 -120 Level Cleveland Center
10:36PM 42.2825 -83.0025 327° Northwest 180 207 5,900 -480 Descending Cleveland Center
10:38PM 42.3253 -83.0461 323° Northwest 198 228 5,200 -720 Descending Cleveland Center
10:39PM 42.3703 -83.0900 324° Northwest 201 231 4,500 -600 Descending Cleveland Center
10:40PM 42.4172 -83.1369 324° Northwest 192 221 4,100 -240 Descending Cleveland Center
10:41PM 42.4581 -83.1808 322° Northwest 182 209 4,100 -180 Level Cleveland Center
10:42PM 42.5028 -83.2306 321° Northwest 190 219 3,800 -480 Descending Cleveland Center
10:43PM 42.5433 -83.2744 321° Northwest 200 230 3,100 -720 Descending Cleveland Center
10:44PM 42.5903 -83.3161 327° Northwest 197 227 2,400 -600 Descending Cleveland Center
10:45PM 42.6372 -83.3547 329° Northwest 184 212 2,000 -540 Descending Cleveland Center
10:46PM 42.6656 -83.3928 315° West 128 147 1,400 -600 Descending Cleveland Center
10:48PM 42.6500 -83.4167 304° West  Level FlightAware Approximate
10:55PM 42.6656 -83.4205 304° West  Level Estimated